Time;durP1;ratioP1;P1;durP2;ratioP2;P2;SDS_P1;SDS_P2;PMS_P1;PMS_P2;Temp;Humidity;BMP_temperature;BMP_pressure;BME280_temperature;BME280_humidity;BME280_pressure;Samples;Min_cycle;Max_cycle;Signal;HPM_P1;HPM_P2
2024/03/28 00:02:15;;;;;;;3.45;3.10;;;7.40;99.90;;;;;;6122026;23;20012;-81
2024/03/28 00:04:41;;;;;;;3.85;3.42;;;7.40;99.90;;;;;;6122496;23;20466;-82
2024/03/28 00:07:07;;;;;;;5.90;3.55;;;7.40;99.90;;;;;;6133694;23;20295;-83
2024/03/28 00:09:34;;;;;;;4.07;3.35;;;7.40;99.90;;;;;;6123374;23;20438;-81
2024/03/28 00:12:00;;;;;;;3.75;3.28;;;7.40;99.90;;;;;;6122967;23;20020;-82
2024/03/28 00:14:27;;;;;;;3.90;3.50;;;7.50;99.90;;;;;;6148641;23;20016;-81
2024/03/28 00:16:54;;;;;;;3.58;2.95;;;7.50;99.90;;;;;;6097862;23;20013;-81
2024/03/28 00:19:20;;;;;;;3.30;2.92;;;7.50;99.90;;;;;;6097816;23;20013;-81
2024/03/28 00:21:47;;;;;;;3.55;3.25;;;7.50;99.90;;;;;;6157327;23;20005;-82
2024/03/28 00:24:13;;;;;;;3.72;3.30;;;7.50;99.90;;;;;;6157224;23;20008;-81
2024/03/28 00:26:39;;;;;;;3.80;3.28;;;7.50;99.90;;;;;;6147269;23;20012;-82
2024/03/28 00:29:06;;;;;;;3.75;3.15;;;7.50;99.90;;;;;;6098000;23;20015;-82
2024/03/28 00:31:32;;;;;;;4.93;2.95;;;7.50;99.90;;;;;;6147766;23;20375;-81
2024/03/28 00:33:58;;;;;;;3.67;3.30;;;7.50;99.90;;;;;;6183575;23;20449;-81
2024/03/28 00:36:25;;;;;;;3.85;3.22;;;7.50;99.90;;;;;;6122851;23;20472;-81
2024/03/28 00:38:51;;;;;;;3.83;3.42;;;7.50;99.90;;;;;;6098179;23;20012;-81
2024/03/28 00:41:18;;;;;;;4.78;3.53;;;7.50;99.90;;;;;;6132829;23;20005;-81
2024/03/28 00:43:44;;;;;;;4.25;3.53;;;7.50;99.90;;;;;;6183832;23;20326;-82
2024/03/28 00:46:11;;;;;;;4.05;3.50;;;7.40;99.90;;;;;;6132851;23;20017;-82
2024/03/28 00:48:37;;;;;;;5.72;5.13;;;7.40;99.90;;;;;;6098855;23;20020;-81
2024/03/28 00:51:03;;;;;;;4.65;4.15;;;7.50;99.90;;;;;;6133266;23;20377;-82
2024/03/28 00:53:30;;;;;;;5.32;4.57;;;7.50;99.90;;;;;;6122269;23;20016;-81
2024/03/28 00:55:59;;;;;;;4.53;3.85;;;7.50;99.90;;;;;;6122291;23;20016;-81
2024/03/28 00:58:25;;;;;;;5.32;4.80;;;7.40;99.90;;;;;;6097682;23;20036;-81
2024/03/28 01:00:52;;;;;;;4.63;3.80;;;7.40;99.90;;;;;;6097987;23;20576;-81
2024/03/28 01:03:18;;;;;;;5.28;3.95;;;7.50;99.90;;;;;;6122659;23;20481;-81
2024/03/28 01:05:45;;;;;;;4.95;4.55;;;7.50;99.90;;;;;;6125138;23;20014;-80
2024/03/28 01:08:11;;;;;;;6.22;5.28;;;7.40;99.90;;;;;;6124276;23;20323;-81
2024/03/28 01:10:38;;;;;;;4.60;4.07;;;7.50;99.90;;;;;;6099990;23;20012;-80
2024/03/28 01:13:05;;;;;;;4.70;3.95;;;7.50;99.90;;;;;;6156633;23;20013;-81
2024/03/28 01:15:34;;;;;;;4.38;3.60;;;7.50;99.90;;;;;;6097626;23;20480;-81
2024/03/28 01:18:00;;;;;;;4.07;3.67;;;7.50;99.90;;;;;;6133622;23;20013;-80
2024/03/28 01:20:27;;;;;;;5.68;4.15;;;7.50;99.90;;;;;;6158383;23;20012;-80
2024/03/28 01:22:53;;;;;;;4.63;4.10;;;7.50;99.90;;;;;;6123996;23;20642;-80
2024/03/28 01:25:19;;;;;;;5.32;4.50;;;7.50;99.90;;;;;;6158511;23;20004;-80
2024/03/28 01:27:46;;;;;;;4.07;3.67;;;7.50;99.90;;;;;;6099237;23;20009;-80
2024/03/28 01:30:13;;;;;;;4.00;3.60;;;7.40;99.90;;;;;;6124807;23;20112;-80
2024/03/28 01:32:39;;;;;;;4.85;3.78;;;7.40;99.90;;;;;;6124212;23;20008;-81
2024/03/28 01:35:05;;;;;;;5.85;4.40;;;7.40;99.90;;;;;;6124059;23;20017;-80
2024/03/28 01:37:32;;;;;;;4.60;4.07;;;7.40;99.90;;;;;;6124542;23;20013;-80
2024/03/28 01:40:00;;;;;;;4.53;3.78;;;7.40;99.90;;;;;;6159571;23;20005;-81
2024/03/28 01:42:26;;;;;;;4.57;3.72;;;7.40;99.90;;;;;;6148606;23;20009;-81
2024/03/28 01:44:54;;;;;;;4.28;3.85;;;7.40;99.90;;;;;;6148409;23;20016;-81
2024/03/28 01:47:21;;;;;;;6.65;5.60;;;7.40;99.90;;;;;;6134695;23;20016;-81
2024/03/28 01:49:47;;;;;;;7.05;5.60;;;7.40;99.90;;;;;;6134881;23;20004;-81
2024/03/28 01:52:15;;;;;;;6.38;5.00;;;7.40;99.90;;;;;;6158711;23;20005;-81
2024/03/28 01:54:43;;;;;;;6.05;5.45;;;7.40;99.90;;;;;;6148510;23;20020;-81
2024/03/28 01:57:12;;;;;;;5.95;4.43;;;7.40;99.90;;;;;;6099717;23;20437;-81
2024/03/28 01:59:39;;;;;;;6.20;4.70;;;7.40;99.90;;;;;;6098971;23;20017;-81
2024/03/28 02:02:07;;;;;;;6.32;4.55;;;7.40;99.90;;;;;;6099320;23;20018;-82
2024/03/28 02:04:36;;;;;;;5.80;5.25;;;7.40;99.90;;;;;;6159094;23;20446;-81
2024/03/28 02:07:02;;;;;;;6.03;5.28;;;7.40;99.90;;;;;;6159397;23;20312;-82
2024/03/28 02:09:29;;;;;;;5.88;5.25;;;7.40;99.90;;;;;;6148981;23;20013;-81
2024/03/28 02:11:58;;;;;;;5.47;4.97;;;7.40;99.90;;;;;;6148385;23;20334;-81
2024/03/28 02:14:24;;;;;;;6.68;4.40;;;7.40;99.90;;;;;;6098934;23;20016;-81
2024/03/28 02:16:50;;;;;;;4.75;3.80;;;7.50;99.90;;;;;;6123267;23;20028;-81
2024/03/28 02:19:17;;;;;;;4.93;4.00;;;7.40;99.90;;;;;;6132102;23;20012;-81
2024/03/28 02:21:47;;;;;;;6.10;4.72;;;7.40;99.90;;;;;;6098172;23;20008;-80
2024/03/28 02:24:13;;;;;;;4.53;4.13;;;7.50;99.90;;;;;;6124043;23;20012;-80
2024/03/28 02:26:40;;;;;;;5.63;4.03;;;7.50;99.90;;;;;;6119879;23;20009;-81
2024/03/28 02:29:06;;;;;;;5.35;4.20;;;7.50;99.90;;;;;;6123998;23;20009;-81
2024/03/28 02:31:32;;;;;;;4.43;3.30;;;7.50;99.90;;;;;;6184497;23;20000;-82
2024/03/28 02:33:59;;;;;;;3.92;3.53;;;7.50;99.90;;;;;;6132610;23;20410;-81
2024/03/28 02:36:25;;;;;;;3.03;2.35;;;7.50;99.90;;;;;;6099416;23;20350;-81
2024/03/28 02:38:51;;;;;;;5.65;4.15;;;7.50;99.90;;;;;;6157730;23;20024;-81
2024/03/28 02:41:21;;;;;;;3.85;3.45;;;7.60;99.90;;;;;;6158631;23;19997;-82
2024/03/28 02:43:48;;;;;;;4.38;3.97;;;7.60;99.90;;;;;;6099358;23;20009;-81
2024/03/28 02:46:14;;;;;;;4.68;3.30;;;7.60;99.90;;;;;;6134821;23;20001;-81
2024/03/28 02:48:40;;;;;;;3.90;3.42;;;7.60;99.90;;;;;;6148214;23;20020;-81
2024/03/28 02:51:07;;;;;;;3.95;3.25;;;7.60;99.90;;;;;;6099198;23;20013;-81
2024/03/28 02:53:33;;;;;;;4.85;2.97;;;7.60;99.90;;;;;;6158280;23;20276;-81
2024/03/28 02:55:59;;;;;;;3.80;2.60;;;7.60;99.90;;;;;;6147989;23;20016;-81
2024/03/28 02:58:26;;;;;;;3.50;3.13;;;7.60;99.90;;;;;;6124000;23;20016;-82
2024/03/28 03:00:53;;;;;;;4.10;3.60;;;7.60;99.90;;;;;;6099927;23;20326;-81
2024/03/28 03:03:19;;;;;;;3.63;2.70;;;7.60;99.90;;;;;;6124136;23;20024;-81
2024/03/28 03:05:49;;;;;;;3.55;2.85;;;7.60;99.90;;;;;;6158505;23;20016;-81
2024/03/28 03:08:15;;;;;;;3.83;3.00;;;7.60;99.90;;;;;;6158413;23;20005;-82
2024/03/28 03:10:42;;;;;;;3.55;3.00;;;7.60;99.90;;;;;;6100379;23;20013;-81
2024/03/28 03:13:09;;;;;;;3.38;3.08;;;7.60;99.90;;;;;;6123534;23;20169;-82
2024/03/28 03:15:35;;;;;;;4.65;3.90;;;7.60;99.90;;;;;;6122735;23;20021;-81
2024/03/28 03:18:02;;;;;;;4.13;3.17;;;7.60;99.90;;;;;;6098582;23;20024;-81
2024/03/28 03:20:28;;;;;;;3.88;3.20;;;7.60;99.90;;;;;;6123656;23;20389;-82
2024/03/28 03:23:04;;;;;;;3.70;3.30;;;7.60;99.90;;;;;;6183142;23;20004;-81
2024/03/28 03:25:41;;;;;;;4.97;3.70;;;7.60;99.90;;;;;;6124106;23;20084;-82
2024/03/28 03:36:24;;;;;;;3.60;3.30;;;7.60;99.90;;;;;;6124692;23;20028;-82
2024/03/28 03:38:50;;;;;;;4.18;3.08;;;7.70;99.90;;;;;;6148306;23;20036;-81
2024/03/28 03:41:16;;;;;;;4.18;3.47;;;7.70;99.90;;;;;;6099879;23;20013;-80
2024/03/28 03:43:43;;;;;;;3.60;3.28;;;7.70;99.90;;;;;;6148086;23;20005;-82
2024/03/28 03:46:09;;;;;;;4.65;3.65;;;7.70;99.90;;;;;;6124917;23;20005;-82
2024/03/28 03:48:35;;;;;;;4.00;3.60;;;7.70;99.90;;;;;;6123857;23;20147;-81
2024/03/28 03:51:02;;;;;;;4.75;3.35;;;7.70;99.90;;;;;;6148458;23;20017;-81
2024/03/28 03:53:28;;;;;;;4.55;3.75;;;7.70;99.90;;;;;;6122912;23;20016;-82
2024/03/28 03:55:58;;;;;;;5.90;3.47;;;7.70;99.90;;;;;;6158851;23;20009;-81
2024/03/28 03:58:25;;;;;;;6.40;4.18;;;7.70;99.90;;;;;;6149057;23;20334;-82
2024/03/28 04:00:51;;;;;;;4.45;3.08;;;7.60;99.90;;;;;;6159855;23;20007;-81
2024/03/28 04:03:18;;;;;;;4.05;3.13;;;7.60;99.90;;;;;;6178245;23;20020;-82
2024/03/28 04:05:44;;;;;;;3.78;2.67;;;7.60;99.90;;;;;;6160641;23;20005;-81
2024/03/28 04:08:11;;;;;;;4.60;3.60;;;7.50;99.90;;;;;;6125192;23;20020;-81
2024/03/28 04:10:37;;;;;;;4.90;3.38;;;7.40;99.90;;;;;;6124993;23;20005;-81
2024/03/28 04:13:03;;;;;;;3.70;2.97;;;7.30;99.90;;;;;;6156409;23;20012;-82
2024/03/28 04:15:30;;;;;;;3.25;2.60;;;7.30;99.90;;;;;;6100226;23;20017;-81
2024/03/28 04:17:57;;;;;;;4.57;3.17;;;7.30;99.90;;;;;;6125149;23;20012;-81
2024/03/28 04:20:23;;;;;;;5.00;3.25;;;7.20;99.90;;;;;;6125129;23;20016;-81
2024/03/28 04:22:49;;;;;;;4.75;3.33;;;7.20;99.90;;;;;;6100785;23;20024;-81
2024/03/28 04:25:16;;;;;;;5.80;3.22;;;7.10;99.90;;;;;;6160370;23;20002;-82
2024/03/28 04:27:42;;;;;;;5.20;3.65;;;7.10;99.90;;;;;;6125262;23;20005;-81
2024/03/28 04:30:09;;;;;;;4.55;3.95;;;7.00;99.90;;;;;;6186618;23;20001;-81
2024/03/28 04:32:35;;;;;;;4.95;2.83;;;7.00;99.90;;;;;;6160029;23;20005;-82
2024/03/28 04:35:01;;;;;;;4.55;2.92;;;7.00;99.90;;;;;;6125839;23;20020;-81
2024/03/28 04:37:28;;;;;;;5.70;3.65;;;7.00;99.90;;;;;;6125336;23;20366;-81
2024/03/28 04:39:54;;;;;;;4.28;3.30;;;6.90;99.90;;;;;;6125522;23;20012;-81
2024/03/28 04:42:20;;;;;;;5.85;3.95;;;6.90;99.90;;;;;;6160183;23;20273;-81
2024/03/28 04:44:46;;;;;;;5.20;3.67;;;6.90;99.90;;;;;;6186847;23;20005;-81
2024/03/28 04:47:14;;;;;;;7.68;5.50;;;6.80;99.90;;;;;;6159663;23;20016;-81
2024/03/28 04:49:42;;;;;;;7.82;5.70;;;6.80;99.90;;;;;;6159589;23;20016;-82
2024/03/28 04:52:09;;;;;;;7.75;5.85;;;6.70;99.90;;;;;;6148962;23;20457;-81
2024/03/28 04:54:35;;;;;;;7.68;6.60;;;6.70;99.90;;;;;;6149224;23;20020;-82
2024/03/28 04:57:02;;;;;;;8.90;6.25;;;6.70;99.90;;;;;;6100660;23;20016;-81
2024/03/28 04:59:28;;;;;;;9.13;6.63;;;6.70;99.90;;;;;;6159801;23;20009;-82
2024/03/28 05:01:55;;;;;;;7.72;6.22;;;6.70;99.90;;;;;;6157055;23;20016;-81
2024/03/28 05:04:22;;;;;;;8.93;6.00;;;6.70;99.90;;;;;;6123412;23;20013;-81
2024/03/28 05:06:48;;;;;;;6.93;5.65;;;6.70;99.90;;;;;;6124732;23;20395;-82
2024/03/28 05:09:15;;;;;;;10.88;7.85;;;6.70;99.90;;;;;;6124321;23;20005;-81
2024/03/28 05:11:41;;;;;;;7.20;6.25;;;6.60;99.90;;;;;;6148862;23;20012;-80
2024/03/28 05:14:07;;;;;;;8.50;6.78;;;6.60;99.90;;;;;;6123368;23;20016;-81
2024/03/28 05:16:34;;;;;;;6.50;5.80;;;6.60;99.90;;;;;;6159110;23;20442;-81
2024/03/28 05:19:00;;;;;;;8.13;6.32;;;6.60;99.90;;;;;;6099892;23;20020;-81
2024/03/28 05:21:26;;;;;;;9.30;6.20;;;6.60;99.90;;;;;;6148375;23;20345;-81
2024/03/28 05:23:54;;;;;;;7.47;6.78;;;6.60;99.90;;;;;;6123881;23;20017;-81
2024/03/28 05:26:20;;;;;;;8.43;5.40;;;6.60;99.90;;;;;;6149916;23;20331;-81
2024/03/28 05:28:47;;;;;;;9.05;6.07;;;6.60;99.90;;;;;;6124344;23;20012;-80
2024/03/28 05:31:16;;;;;;;9.68;6.15;;;6.60;99.90;;;;;;6124879;23;20001;-80
2024/03/28 05:33:42;;;;;;;7.55;5.95;;;6.60;99.90;;;;;;6099538;23;20016;-80
2024/03/28 05:36:08;;;;;;;7.43;5.65;;;6.60;99.90;;;;;;6125434;23;20194;-81
2024/03/28 05:38:35;;;;;;;7.63;5.40;;;6.60;99.90;;;;;;6100441;23;20028;-80
2024/03/28 05:41:01;;;;;;;7.60;6.05;;;6.60;99.90;;;;;;6124525;23;20013;-81
2024/03/28 05:43:27;;;;;;;7.60;5.50;;;6.60;99.90;;;;;;6124028;23;20020;-81
2024/03/28 05:45:54;;;;;;;7.43;5.35;;;6.60;99.90;;;;;;6100558;23;20013;-80
2024/03/28 05:48:20;;;;;;;6.72;5.03;;;6.60;99.90;;;;;;6123951;23;20024;-80
2024/03/28 05:50:46;;;;;;;9.18;6.35;;;6.60;99.90;;;;;;6124478;23;20013;-80
2024/03/28 05:53:14;;;;;;;8.15;5.63;;;6.60;99.90;;;;;;6124549;23;20474;-80
2024/03/28 05:55:43;;;;;;;7.75;5.28;;;6.60;99.90;;;;;;6185560;23;20457;-81
2024/03/28 05:58:09;;;;;;;7.65;5.15;;;6.60;99.90;;;;;;6099760;23;20017;-80
2024/03/28 06:00:36;;;;;;;7.95;4.45;;;6.60;99.90;;;;;;6101035;23;20009;-82
2024/03/28 06:03:03;;;;;;;5.97;4.38;;;6.60;99.90;;;;;;6178472;23;20016;-80
2024/03/28 06:05:30;;;;;;;8.68;5.50;;;6.60;99.90;;;;;;6123266;23;20013;-81
2024/03/28 06:07:56;;;;;;;7.97;4.93;;;6.60;99.90;;;;;;6184446;23;20009;-80
2024/03/28 06:10:23;;;;;;;6.95;4.88;;;6.70;99.90;;;;;;6127095;23;20009;-80
2024/03/28 06:12:49;;;;;;;9.48;4.82;;;6.70;99.90;;;;;;6130324;23;20472;-81
2024/03/28 06:15:15;;;;;;;6.20;4.93;;;6.80;99.90;;;;;;6124410;23;20524;-81
2024/03/28 06:17:42;;;;;;;6.28;4.40;;;6.90;99.90;;;;;;6133804;23;20012;-81
2024/03/28 06:20:10;;;;;;;6.82;4.57;;;7.00;99.90;;;;;;6099859;23;20005;-81
2024/03/28 06:22:38;;;;;;;7.18;5.13;;;7.00;99.90;;;;;;6134211;23;20012;-81
2024/03/28 06:25:07;;;;;;;6.13;4.15;;;7.10;99.90;;;;;;6158707;23;20016;-80
2024/03/28 06:27:34;;;;;;;5.80;4.25;;;7.10;99.90;;;;;;6125844;23;20016;-80
2024/03/28 06:30:00;;;;;;;7.63;3.97;;;7.20;99.90;;;;;;6158529;23;20005;-80
2024/03/28 06:32:30;;;;;;;5.95;4.32;;;7.30;99.90;;;;;;6123396;23;20012;-81
2024/03/28 06:34:57;;;;;;;6.07;3.78;;;7.30;99.90;;;;;;6158196;23;20038;-80
2024/03/28 06:37:24;;;;;;;5.35;3.97;;;7.40;99.90;;;;;;6100400;23;20044;-81
2024/03/28 06:39:51;;;;;;;4.95;4.35;;;7.40;99.90;;;;;;6100918;23;20013;-80
2024/03/28 06:42:18;;;;;;;4.95;4.07;;;7.40;99.90;;;;;;6133549;23;20012;-81
2024/03/28 06:44:46;;;;;;;10.02;4.47;;;7.50;99.90;;;;;;6099309;23;20036;-80
2024/03/28 06:47:13;;;;;;;6.30;5.25;;;7.50;99.90;;;;;;6124293;23;20016;-81
2024/03/28 06:49:40;;;;;;;6.20;4.38;;;7.50;99.90;;;;;;6100357;23;20001;-80
2024/03/28 06:52:09;;;;;;;4.28;3.30;;;7.50;99.90;;;;;;6124914;23;20020;-80
2024/03/28 06:54:35;;;;;;;6.35;4.95;;;7.60;99.90;;;;;;6123323;23;20341;-80
2024/03/28 06:57:01;;;;;;;4.65;3.78;;;7.60;99.90;;;;;;6148744;23;20017;-81
2024/03/28 06:59:28;;;;;;;6.68;4.55;;;7.70;99.90;;;;;;6158811;23;20013;-80
2024/03/28 07:01:54;;;;;;;4.50;3.85;;;7.70;99.90;;;;;;6156111;23;20332;-80
2024/03/28 07:04:20;;;;;;;4.50;4.10;;;7.80;99.90;;;;;;6157818;23;20001;-80
2024/03/28 07:06:47;;;;;;;7.13;4.68;;;8.00;99.90;;;;;;6158566;23;20055;-80
2024/03/28 07:09:14;;;;;;;6.15;3.58;;;8.40;99.90;;;;;;6184915;23;20330;-80
2024/03/28 07:11:41;;;;;;;6.13;3.67;;;8.60;99.90;;;;;;6123811;23;20379;-80
2024/03/28 07:14:07;;;;;;;5.32;3.65;;;8.80;99.90;;;;;;6123785;23;20002;-80
2024/03/28 07:16:34;;;;;;;5.40;3.42;;;8.90;99.90;;;;;;6148766;23;20333;-80
2024/03/28 07:19:02;;;;;;;3.85;3.33;;;9.00;99.90;;;;;;6124392;23;20017;-79
2024/03/28 07:21:28;;;;;;;3.05;2.70;;;9.00;99.90;;;;;;6123120;23;20009;-80
2024/03/28 07:23:54;;;;;;;4.22;3.75;;;9.10;99.90;;;;;;6099633;23;20243;-80
2024/03/28 07:26:21;;;;;;;4.53;3.85;;;9.10;99.90;;;;;;6148876;23;20024;-80
2024/03/28 07:28:47;;;;;;;3.00;2.67;;;9.10;99.90;;;;;;6099663;23;20032;-79
2024/03/28 07:31:13;;;;;;;2.80;2.50;;;9.20;99.90;;;;;;6125045;23;20014;-79
2024/03/28 07:33:40;;;;;;;4.40;2.70;;;9.30;99.90;;;;;;6150684;23;20016;-80
2024/03/28 07:36:06;;;;;;;3.00;2.10;;;9.40;99.90;;;;;;6160673;23;20005;-80
2024/03/28 07:38:33;;;;;;;2.42;1.98;;;9.60;99.90;;;;;;6160028;23;20458;-80
2024/03/28 07:40:59;;;;;;;3.75;2.83;;;9.80;99.90;;;;;;6128908;23;20009;-80
2024/03/28 07:43:26;;;;;;;3.53;2.47;;;9.80;99.90;;;;;;6161469;23;20020;-80
2024/03/28 07:46:03;;;;;;;4.57;2.88;;;9.90;99.90;;;;;;6126327;23;20306;-80
2024/03/28 07:48:30;;;;;;;3.53;2.80;;;9.90;99.90;;;;;;6101168;23;20020;-81
2024/03/28 07:50:57;;;;;;;4.05;2.45;;;9.90;99.90;;;;;;6125704;23;20461;-83
2024/03/28 07:53:24;;;;;;;2.95;2.42;;;9.90;99.90;;;;;;6101080;23;20020;-84
2024/03/28 07:55:50;;;;;;;7.97;4.30;;;9.80;99.90;;;;;;6124480;23;20013;-80
2024/03/28 07:58:16;;;;;;;5.60;4.35;;;9.80;99.90;;;;;;6135434;23;20005;-79
2024/03/28 08:00:43;;;;;;;4.13;3.00;;;9.80;99.90;;;;;;6186910;23;20446;-79
2024/03/28 08:03:09;;;;;;;3.67;2.90;;;9.70;99.90;;;;;;6100863;23;20013;-83
2024/03/28 08:05:36;;;;;;;3.58;2.67;;;9.60;99.90;;;;;;6149281;23;20476;-81
2024/03/28 08:08:03;;;;;;;3.65;2.13;;;9.60;99.90;;;;;;6135214;23;20454;-80
2024/03/28 08:10:31;;;;;;;9.10;5.13;;;9.60;99.90;;;;;;6101336;23;20005;-80
2024/03/28 08:12:58;;;;;;;3.67;2.55;;;9.60;99.90;;;;;;6149377;23;20020;-81
2024/03/28 08:15:27;;;;;;;5.40;3.50;;;9.60;99.90;;;;;;6129819;23;20024;-82
2024/03/28 08:17:54;;;;;;;2.95;2.08;;;9.60;99.90;;;;;;6148722;23;20013;-81
2024/03/28 08:20:20;;;;;;;3.88;2.70;;;9.60;99.90;;;;;;6100973;23;20020;-82
2024/03/28 08:22:50;;;;;;;5.03;2.97;;;9.60;99.90;;;;;;6147852;23;20013;-81
2024/03/28 08:25:17;;;;;;;2.95;2.17;;;9.60;99.90;;;;;;6124004;23;20012;-82
2024/03/28 08:27:43;;;;;;;2.35;1.77;;;9.60;99.90;;;;;;6134242;23;19997;-81
2024/03/28 08:30:11;;;;;;;3.38;2.45;;;9.60;99.90;;;;;;6123991;23;20009;-81
2024/03/28 08:32:38;;;;;;;3.42;2.40;;;9.50;99.90;;;;;;6158314;23;20005;-80
2024/03/28 08:35:04;;;;;;;3.72;2.25;;;9.50;99.90;;;;;;6099967;23;20020;-81
2024/03/28 08:37:37;;;;;;;2.70;1.50;;;9.50;99.90;;;;;;6101079;23;20017;-81
2024/03/28 08:40:03;;;;;;;4.55;1.45;;;9.40;99.90;;;;;;6124842;23;20016;-82
2024/03/28 08:42:34;;;;;;;2.45;1.80;;;9.30;99.90;;;;;;6147939;23;20017;-83
2024/03/28 08:45:01;;;;;;;2.83;1.92;;;9.20;99.90;;;;;;6100964;23;20005;-84
2024/03/28 08:47:27;;;;;;;5.40;1.63;;;9.10;99.90;;;;;;6124780;23;20430;-87
2024/03/28 08:49:54;;;;;;;3.10;1.73;;;8.90;99.90;;;;;;6186176;23;20016;-86
2024/03/28 08:52:20;;;;;;;4.38;2.33;;;8.80;99.90;;;;;;6158420;23;20004;-83
2024/03/28 08:54:46;;;;;;;3.50;1.73;;;8.70;99.90;;;;;;6158910;23;20465;-83
2024/03/28 08:57:13;;;;;;;4.85;3.30;;;8.70;99.90;;;;;;6148492;23;20013;-84
2024/03/28 08:59:39;;;;;;;3.95;1.63;;;8.60;99.90;;;;;;6124252;23;20020;-83
2024/03/28 09:02:10;;;;;;;3.78;2.28;;;8.60;99.90;;;;;;6124408;23;20009;-83
2024/03/28 09:04:36;;;;;;;2.90;1.45;;;8.50;99.90;;;;;;6134275;23;20457;-82
2024/03/28 09:07:03;;;;;;;3.10;1.20;;;8.50;99.90;;;;;;6123425;23;20005;-80
2024/03/28 09:09:29;;;;;;;4.70;2.05;;;8.50;99.90;;;;;;6099559;23;20476;-81
2024/03/28 09:11:57;;;;;;;3.40;2.08;;;8.60;99.90;;;;;;6147858;23;20456;-82
2024/03/28 09:14:23;;;;;;;2.88;1.33;;;8.60;99.90;;;;;;6148365;23;20012;-80
2024/03/28 09:16:50;;;;;;;1.85;1.25;;;8.70;99.90;;;;;;6133759;23;20009;-81
2024/03/28 09:19:17;;;;;;;1.50;0.85;;;8.70;99.90;;;;;;6099141;23;20012;-80
2024/03/28 09:21:44;;;;;;;1.50;1.00;;;8.80;99.90;;;;;;6185229;23;20004;-81
2024/03/28 09:24:10;;;;;;;2.10;1.08;;;8.80;99.90;;;;;;6157771;23;20016;-81
2024/03/28 09:26:37;;;;;;;2.60;1.00;;;8.80;99.90;;;;;;6148081;23;20035;-81
2024/03/28 09:29:03;;;;;;;1.30;0.90;;;8.80;99.90;;;;;;6123311;23;20009;-80
2024/03/28 09:31:30;;;;;;;1.45;0.77;;;8.80;99.90;;;;;;6123599;23;20009;-81
2024/03/28 09:33:56;;;;;;;1.63;1.00;;;8.80;99.90;;;;;;6122410;23;20472;-81
2024/03/28 09:36:22;;;;;;;2.00;1.55;;;8.80;99.90;;;;;;6099385;23;20323;-80
2024/03/28 09:38:50;;;;;;;2.55;1.17;;;8.80;99.90;;;;;;6134434;23;20012;-83
2024/03/28 09:41:25;;;;;;;2.65;1.08;;;8.80;99.90;;;;;;6124327;23;20020;-81
2024/03/28 09:44:05;;;;;;;2.05;1.33;;;8.70;99.90;;;;;;6184176;23;20315;-80
2024/03/28 09:46:34;;;;;;;1.30;0.80;;;8.60;99.90;;;;;;6123722;23;20481;-80
2024/03/28 09:49:01;;;;;;;3.22;1.33;;;8.60;99.90;;;;;;6185601;23;20295;-80
2024/03/28 09:51:30;;;;;;;1.95;1.10;;;8.60;99.90;;;;;;6159101;23;20311;-80
2024/03/28 09:54:01;;;;;;;3.08;2.03;;;8.60;99.90;;;;;;6123971;23;20564;-80
2024/03/28 09:56:28;;;;;;;2.97;1.57;;;8.70;99.90;;;;;;6124894;23;20489;-80
2024/03/28 09:58:54;;;;;;;2.35;1.10;;;8.70;99.90;;;;;;6123813;23;20354;-80
2024/03/28 10:01:21;;;;;;;4.90;1.42;;;8.70;99.90;;;;;;6149118;23;20009;-80
2024/03/28 10:03:56;;;;;;;2.00;1.52;;;8.70;99.90;;;;;;6123900;23;20460;-80
2024/03/28 10:06:23;;;;;;;1.90;1.20;;;8.70;99.90;;;;;;6124219;23;20009;-81
2024/03/28 10:08:50;;;;;;;3.25;2.15;;;8.80;99.90;;;;;;6124490;23;20457;-81
2024/03/28 10:11:17;;;;;;;2.55;1.90;;;8.70;99.90;;;;;;6124689;23;20009;-80
2024/03/28 10:13:46;;;;;;;3.20;2.03;;;8.70;99.90;;;;;;6153615;23;20442;-80
2024/03/28 10:16:15;;;;;;;3.03;2.22;;;8.70;99.90;;;;;;6159142;23;20330;-80
2024/03/28 10:18:42;;;;;;;3.78;1.77;;;8.70;99.90;;;;;;6124033;23;20017;-81
2024/03/28 10:21:11;;;;;;;2.25;1.50;;;8.80;99.90;;;;;;6124278;23;20013;-81
2024/03/28 10:23:42;;;;;;;3.95;2.35;;;8.80;99.90;;;;;;6124298;23;20032;-79
2024/03/28 10:26:09;;;;;;;2.70;2.00;;;8.70;99.90;;;;;;6124897;23;20450;-80
2024/03/28 10:28:36;;;;;;;2.45;1.60;;;8.70;99.90;;;;;;6124854;23;20020;-81
2024/03/28 10:31:04;;;;;;;2.67;2.05;;;8.70;99.90;;;;;;6158951;23;20005;-81
2024/03/28 10:33:33;;;;;;;2.97;1.92;;;8.70;99.90;;;;;;6123519;23;20025;-80
2024/03/28 10:36:03;;;;;;;3.17;1.90;;;8.70;99.90;;;;;;6159816;23;20036;-81
2024/03/28 10:38:30;;;;;;;3.38;2.13;;;8.70;99.90;;;;;;6159279;23;20005;-81
2024/03/28 10:40:59;;;;;;;2.65;2.22;;;8.70;99.90;;;;;;6100197;23;20376;-83
2024/03/28 10:43:27;;;;;;;3.20;1.73;;;8.70;99.90;;;;;;6148765;23;20009;-83
2024/03/28 10:46:02;;;;;;;3.17;1.98;;;8.60;99.90;;;;;;6124250;23;20346;-82
2024/03/28 10:48:33;;;;;;;3.67;2.00;;;8.50;99.90;;;;;;6124574;23;20017;-82
2024/03/28 10:51:11;;;;;;;3.63;2.33;;;8.40;99.90;;;;;;6124849;23;20016;-84
2024/03/28 10:54:03;;;;;;;2.25;1.60;;;8.40;99.90;;;;;;6159160;23;20316;-83
2024/03/28 10:56:32;;;;;;;3.53;1.30;;;8.40;99.90;;;;;;6100203;23;20450;-83
2024/03/28 10:59:05;;;;;;;2.13;1.20;;;8.40;99.90;;;;;;6124198;23;20021;-83
2024/03/28 11:01:32;;;;;;;;;;;8.40;99.90;;;;;;6100841;23;20020;-83
2024/03/28 11:04:01;;;;;;;3.38;1.40;;;8.50;99.90;;;;;;6149380;23;19908;-83
2024/03/28 11:06:28;;;;;;;3.22;1.40;;;8.50;99.90;;;;;;6127006;23;20009;-83
2024/03/28 11:08:58;;;;;;;1.80;1.38;;;8.50;99.90;;;;;;6152319;23;20009;-83
2024/03/28 11:11:25;;;;;;;1.65;1.20;;;8.50;99.90;;;;;;6102978;23;20009;-83
2024/03/28 11:13:52;;;;;;;2.97;2.08;;;8.60;99.90;;;;;;6103127;23;20069;-83
2024/03/28 11:16:23;;;;;;;3.22;1.60;;;8.70;99.90;;;;;;6103133;23;20017;-83
2024/03/28 11:18:50;;;;;;;3.00;1.83;;;8.80;99.90;;;;;;6187900;23;20009;-83
2024/03/28 11:21:27;;;;;;;2.60;2.28;;;8.90;99.90;;;;;;6102986;23;20353;-83
2024/03/28 11:23:54;;;;;;;3.42;1.90;;;9.10;99.90;;;;;;6135271;23;20035;-84
2024/03/28 11:26:23;;;;;;;3.22;2.42;;;9.20;99.90;;;;;;6172101;23;20009;-84
2024/03/28 11:29:05;;;;;;;3.60;2.20;;;9.20;99.90;;;;;;6104219;23;20016;-84
2024/03/28 11:31:32;;;;;;;3.38;1.92;;;9.30;99.90;;;;;;6175450;23;20009;-84
2024/03/28 11:34:06;;;;;;;3.88;2.45;;;9.30;99.90;;;;;;6165209;23;20001;-83
2024/03/28 11:36:33;;;;;;;6.10;3.15;;;9.30;99.90;;;;;;6189037;23;20322;-84
2024/03/28 11:39:00;;;;;;;4.38;3.67;;;9.30;99.90;;;;;;6127721;23;20327;-84
2024/03/28 11:41:27;;;;;;;5.90;3.35;;;9.40;99.90;;;;;;6136905;23;20001;-83
2024/03/28 11:43:54;;;;;;;6.13;3.65;;;9.40;99.90;;;;;;6136283;23;19997;-85
2024/03/28 11:46:23;;;;;;;5.60;4.53;;;9.50;99.90;;;;;;6127747;23;20457;-84
2024/03/28 11:48:58;;;;;;;6.53;4.60;;;9.50;99.90;;;;;;6102632;23;20512;-84
2024/03/28 11:51:24;;;;;;;6.35;4.82;;;9.60;99.90;;;;;;6138457;23;20012;-84
2024/03/28 11:53:52;;;;;;;6.38;4.57;;;9.70;99.90;;;;;;6125602;23;20350;-83
2024/03/28 11:56:18;;;;;;;6.22;5.00;;;9.80;99.90;;;;;;6161749;23;20008;-84
2024/03/28 11:58:45;;;;;;;9.45;4.97;;;9.90;99.90;;;;;;6126047;23;20021;-84
2024/03/28 12:01:11;;;;;;;9.57;4.68;;;10.00;99.90;;;;;;6102625;23;20465;-84
2024/03/28 12:03:37;;;;;;;7.00;4.45;;;10.00;99.90;;;;;;6152015;23;20008;-82
2024/03/28 12:06:05;;;;;;;6.72;4.75;;;10.10;99.90;;;;;;6126789;23;20024;-84
2024/03/28 12:08:31;;;;;;;10.70;6.40;;;10.10;99.90;;;;;;6102554;23;20009;-83
2024/03/28 12:10:59;;;;;;;6.63;4.72;;;10.30;99.90;;;;;;6127393;23;20020;-81
2024/03/28 12:13:25;;;;;;;9.23;6.07;;;10.50;99.90;;;;;;6157773;23;20013;-83
2024/03/28 12:15:56;;;;;;;7.88;6.45;;;10.80;99.90;;;;;;6102795;23;20362;-83
2024/03/28 12:18:22;;;;;;;8.48;7.20;;;11.10;99.90;;;;;;6125060;23;20020;-83
2024/03/28 12:21:00;;;;;;;7.05;5.35;;;11.50;99.90;;;;;;6160199;23;20015;-84
2024/03/28 12:23:27;;;;;;;6.40;4.45;;;11.90;99.90;;;;;;6100680;23;20012;-83
2024/03/28 12:25:53;;;;;;;6.35;4.13;;;12.20;99.90;;;;;;6125229;23;20330;-84
2024/03/28 12:28:24;;;;;;;4.95;3.67;;;12.60;99.90;;;;;;6125508;23;20345;-84
2024/03/28 12:30:52;;;;;;;7.53;4.18;;;12.90;99.90;;;;;;6125730;23;20659;-83
2024/03/28 12:33:24;;;;;;;5.28;3.25;;;13.20;99.90;;;;;;6101065;23;20020;-83
2024/03/28 12:35:52;;;;;;;5.10;3.20;;;13.30;99.90;;;;;;6160293;23;20028;-83
2024/03/28 12:38:19;;;;;;;5.10;3.60;;;13.50;99.90;;;;;;6101204;23;20259;-82
2024/03/28 12:40:48;;;;;;;8.35;4.45;;;13.70;99.90;;;;;;6186891;23;20020;-82
2024/03/28 12:43:15;;;;;;;5.85;3.53;;;13.80;99.90;;;;;;6135630;23;20319;-82
2024/03/28 12:45:42;;;;;;;6.25;3.38;;;14.00;99.90;;;;;;6101227;23;20020;-84
2024/03/28 12:48:10;;;;;;;5.80;2.67;;;14.20;99.90;;;;;;6101151;23;20005;-82
2024/03/28 12:50:37;;;;;;;7.43;3.20;;;14.50;99.90;;;;;;6100696;23;20009;-81
2024/03/28 12:53:05;;;;;;;6.35;2.50;;;14.90;99.90;;;;;;6135094;23;20461;-82
2024/03/28 12:55:32;;;;;;;4.78;2.22;;;15.20;99.90;;;;;;6185792;23;20437;-82
2024/03/28 12:58:02;;;;;;;4.03;1.92;;;15.00;99.90;;;;;;6127187;23;20005;-82
2024/03/28 13:00:28;;;;;;;6.00;2.47;;;14.80;99.90;;;;;;6198439;23;20015;-81
2024/03/28 13:02:54;;;;;;;3.45;1.92;;;14.80;99.90;;;;;;6159170;23;20013;-81
2024/03/28 13:05:21;;;;;;;5.93;2.10;;;15.10;99.90;;;;;;6148999;23;20009;-81